createdAt,value
2017-07-19T00:00:02.269Z,14.86
2017-07-19T00:01:02.569Z,14.87
2017-07-19T00:02:02.526Z,14.8
2017-07-19T00:03:02.241Z,14.86
2017-07-19T00:04:02.546Z,14.87
2017-07-19T00:05:02.541Z,14.86
2017-07-19T00:06:02.194Z,14.79
2017-07-19T00:07:02.514Z,14.79
2017-07-19T00:08:02.572Z,14.75
2017-07-19T00:09:02.176Z,14.79
2017-07-19T00:10:02.180Z,14.7
2017-07-19T00:11:02.185Z,14.67
2017-07-19T00:12:02.182Z,14.7
2017-07-19T00:13:02.160Z,14.69
2017-07-19T00:14:02.475Z,14.69
2017-07-19T00:15:02.472Z,14.66
2017-07-19T00:16:02.471Z,14.64
2017-07-19T00:17:02.457Z,14.67
2017-07-19T00:18:02.146Z,14.64
2017-07-19T00:19:02.451Z,14.71
2017-07-19T00:20:02.119Z,14.63
2017-07-19T00:21:02.440Z,14.59
2017-07-19T00:22:02.151Z,14.6
2017-07-19T00:23:02.428Z,14.61
2017-07-19T00:24:01.782Z,14.6
2017-07-19T00:25:02.100Z,14.59
2017-07-19T00:26:02.640Z,14.63
2017-07-19T00:27:02.424Z,14.57
2017-07-19T00:28:02.412Z,14.51
2017-07-19T00:29:01.755Z,14.63
2017-07-19T00:30:02.078Z,14.46
2017-07-19T00:31:02.406Z,14.64
2017-07-19T00:32:02.391Z,14.51
2017-07-19T00:33:02.395Z,14.48
2017-07-19T00:34:02.104Z,14.49
2017-07-19T00:35:02.057Z,14.52
2017-07-19T00:36:02.068Z,14.56
2017-07-19T00:37:02.363Z,14.49
2017-07-19T00:38:02.039Z,14.51
2017-07-19T00:39:01.711Z,14.46
2017-07-19T00:40:02.350Z,14.46
2017-07-19T00:41:02.030Z,14.48
2017-07-19T00:42:02.025Z,14.52
2017-07-19T00:43:01.697Z,14.46
2017-07-19T00:44:02.335Z,14.45
2017-07-19T00:45:02.012Z,14.51
2017-07-19T00:46:02.322Z,14.51
2017-07-19T00:47:02.021Z,14.48
2017-07-19T00:48:02.318Z,14.46
2017-07-19T00:49:02.304Z,14.49
2017-07-19T00:50:01.995Z,14.56
2017-07-19T00:51:01.991Z,14.46
2017-07-19T00:52:01.977Z,14.49
2017-07-19T00:53:01.983Z,14.48
2017-07-19T00:54:01.960Z,14.51
2017-07-19T00:55:01.960Z,14.45
2017-07-19T00:56:02.311Z,14.38
2017-07-19T00:57:01.968Z,14.45
2017-07-19T00:58:02.281Z,14.45
2017-07-19T00:59:02.270Z,14.39
2017-07-19T01:00:01.617Z,14.39
2017-07-19T01:01:01.933Z,14.34
2017-07-19T01:02:02.244Z,14.34
2017-07-19T01:03:01.933Z,14.36
2017-07-19T01:04:01.622Z,14.31
2017-07-19T01:05:02.255Z,14.46
2017-07-19T01:06:02.227Z,14.34
2017-07-19T01:07:01.901Z,14.33
2017-07-19T01:08:01.906Z,14.38
2017-07-19T01:09:01.887Z,14.41
2017-07-19T01:10:01.919Z,14.42
2017-07-19T01:11:01.901Z,14.36
2017-07-19T01:12:02.199Z,14.39
2017-07-19T01:13:02.212Z,14.34
2017-07-19T01:14:02.197Z,14.38
2017-07-19T01:15:01.542Z,14.45
2017-07-19T01:16:02.199Z,14.41
2017-07-19T01:17:02.176Z,14.45
2017-07-19T01:18:01.884Z,14.44
2017-07-19T01:19:02.167Z,14.44
2017-07-19T01:20:02.168Z,14.45
2017-07-19T01:21:01.845Z,14.42
2017-07-19T01:22:01.831Z,14.39
2017-07-19T01:23:02.193Z,14.44
2017-07-19T01:24:01.822Z,14.41
2017-07-19T01:25:01.812Z,14.44
2017-07-19T01:26:02.126Z,14.45
2017-07-19T01:27:02.134Z,14.44
2017-07-19T01:28:01.794Z,14.51
2017-07-19T01:29:01.503Z,14.42
2017-07-19T01:30:02.125Z,14.46
2017-07-19T01:31:02.108Z,14.48
2017-07-19T01:32:02.102Z,14.48
2017-07-19T01:33:02.097Z,14.44
2017-07-19T01:34:01.807Z,14.46
2017-07-19T01:35:02.089Z,14.39
2017-07-19T01:36:01.761Z,14.44
2017-07-19T01:37:01.433Z,14.33
2017-07-19T01:38:01.754Z,14.38
2017-07-19T01:39:02.082Z,14.49
2017-07-19T01:40:02.059Z,14.49
2017-07-19T01:41:01.746Z,14.49
2017-07-19T01:42:02.053Z,14.51
2017-07-19T01:43:01.742Z,14.46
2017-07-19T01:44:02.047Z,14.45
2017-07-19T01:45:02.040Z,14.45
2017-07-19T01:46:01.718Z,14.49
2017-07-19T01:47:01.718Z,14.45
2017-07-19T01:48:02.020Z,14.38
2017-07-19T01:49:01.695Z,14.45
2017-07-19T01:50:01.374Z,14.51
2017-07-19T01:51:01.685Z,14.48
2017-07-19T01:52:01.675Z,14.51
2017-07-19T01:53:01.679Z,14.45
2017-07-19T01:54:01.674Z,14.48
2017-07-19T01:55:01.992Z,14.46
2017-07-19T01:56:01.665Z,14.49
2017-07-19T01:57:01.666Z,14.49
2017-07-19T01:58:02.007Z,14.49
2017-07-19T01:59:01.646Z,14.48
2017-07-19T02:00:01.524Z,14.46
2017-07-19T02:01:01.651Z,14.52
2017-07-19T02:02:01.633Z,14.56
2017-07-19T02:03:01.630Z,14.46
2017-07-19T02:04:01.955Z,14.46
2017-07-19T02:05:01.630Z,14.48
2017-07-19T02:06:01.952Z,14.48
2017-07-19T02:07:01.938Z,14.48
2017-07-19T02:08:01.953Z,14.48
2017-07-19T02:09:01.924Z,14.46
2017-07-19T02:10:01.919Z,14.51
2017-07-19T02:11:01.930Z,14.51
2017-07-19T02:12:01.631Z,14.57
2017-07-19T02:13:01.899Z,14.49
2017-07-19T02:14:01.896Z,14.46
2017-07-19T02:15:01.264Z,14.49
2017-07-19T02:16:01.910Z,14.49
2017-07-19T02:17:01.582Z,14.45
2017-07-19T02:18:01.553Z,14.45
2017-07-19T02:19:01.886Z,14.45
2017-07-19T02:20:01.546Z,14.49
2017-07-19T02:21:01.538Z,14.42
2017-07-19T02:22:01.876Z,14.49
2017-07-19T02:23:01.527Z,14.46
2017-07-19T02:24:01.549Z,14.49
2017-07-19T02:25:01.523Z,14.46
2017-07-19T02:26:01.861Z,14.48
2017-07-19T02:27:01.829Z,14.49
2017-07-19T02:28:01.830Z,14.42
2017-07-19T02:29:01.497Z,14.48
2017-07-19T02:30:01.522Z,14.46
2017-07-19T02:31:01.814Z,14.48
2017-07-19T02:32:01.837Z,14.57
2017-07-19T02:33:01.804Z,14.46
2017-07-19T02:34:01.539Z,14.52
2017-07-19T02:35:01.471Z,14.49
2017-07-19T02:36:01.470Z,14.45
2017-07-19T02:37:01.465Z,14.46
2017-07-19T02:38:01.469Z,14.51
2017-07-19T02:39:01.785Z,14.45
2017-07-19T02:40:01.767Z,14.48
2017-07-19T02:41:01.763Z,14.46
2017-07-19T02:42:01.473Z,14.48
2017-07-19T02:43:01.767Z,14.39
2017-07-19T02:44:01.956Z,14.39
2017-07-19T02:45:01.422Z,14.39
2017-07-19T02:46:01.739Z,14.44
2017-07-19T02:47:01.413Z,14.48
2017-07-19T02:48:01.422Z,14.44
2017-07-19T02:49:01.729Z,14.42
2017-07-19T02:50:01.415Z,14.48
2017-07-19T02:51:01.395Z,14.45
2017-07-19T02:52:01.390Z,14.44
2017-07-19T02:53:01.060Z,14.48
2017-07-19T02:54:01.701Z,14.49
2017-07-19T02:55:01.706Z,14.52
2017-07-19T02:56:01.686Z,14.49
2017-07-19T02:57:01.684Z,14.46
2017-07-19T02:58:01.382Z,14.46
2017-07-19T02:59:01.679Z,14.42
2017-07-19T03:00:01.026Z,14.51
2017-07-19T03:01:01.032Z,14.45
2017-07-19T03:02:01.339Z,14.45
2017-07-19T03:03:01.659Z,14.42
2017-07-19T03:04:01.656Z,14.48
2017-07-19T03:05:01.663Z,14.39
2017-07-19T03:06:01.670Z,14.46
2017-07-19T03:07:01.314Z,14.46
2017-07-19T03:08:01.655Z,14.44
2017-07-19T03:09:01.307Z,14.39
2017-07-19T03:10:01.313Z,14.52
2017-07-19T03:11:01.313Z,14.39
2017-07-19T03:12:01.315Z,14.44
2017-07-19T03:13:01.622Z,14.45
2017-07-19T03:14:01.617Z,14.53
2017-07-19T03:15:01.606Z,14.48
2017-07-19T03:16:01.610Z,14.53
2017-07-19T03:17:01.272Z,14.49
2017-07-19T03:18:01.594Z,14.52
2017-07-19T03:19:01.588Z,14.49
2017-07-19T03:20:01.623Z,14.49
2017-07-19T03:21:01.569Z,14.46
2017-07-19T03:22:01.582Z,14.48
2017-07-19T03:23:01.238Z,14.51
2017-07-19T03:24:01.234Z,14.49
2017-07-19T03:25:01.243Z,14.44
2017-07-19T03:26:00.900Z,14.46
2017-07-19T03:27:01.223Z,14.49
2017-07-19T03:28:01.230Z,14.51
2017-07-19T03:29:01.526Z,14.46
2017-07-19T03:30:01.201Z,14.49
2017-07-19T03:31:01.202Z,14.49
2017-07-19T03:32:00.878Z,14.52
2017-07-19T03:33:01.523Z,14.46
2017-07-19T03:34:01.194Z,14.49
2017-07-19T03:35:01.549Z,14.51
2017-07-19T03:36:01.518Z,14.6
2017-07-19T03:37:01.501Z,14.63
2017-07-19T03:38:01.188Z,14.64
2017-07-19T03:39:00.834Z,14.59
2017-07-19T03:40:01.510Z,14.59
2017-07-19T03:41:01.157Z,14.57
2017-07-19T03:42:01.463Z,14.67
2017-07-19T03:43:01.156Z,14.67
2017-07-19T03:44:01.463Z,14.66
2017-07-19T03:45:01.129Z,14.66
2017-07-19T03:46:01.455Z,14.66
2017-07-19T03:47:01.436Z,14.69
2017-07-19T03:48:01.111Z,14.69
2017-07-19T03:49:01.157Z,14.8
2017-07-19T03:50:01.435Z,14.71
2017-07-19T03:51:01.432Z,14.8
2017-07-19T03:52:01.096Z,14.82
2017-07-19T03:53:01.412Z,14.85
2017-07-19T03:54:01.453Z,14.95
2017-07-19T03:55:01.400Z,14.93
2017-07-19T03:56:00.758Z,15.01
2017-07-19T03:57:01.071Z,14.98
2017-07-19T03:58:01.385Z,15.05
2017-07-19T03:59:01.076Z,15.01
2017-07-19T04:00:01.057Z,15.02
2017-07-19T04:01:01.385Z,15.1
2017-07-19T04:02:01.374Z,15.16
2017-07-19T04:03:01.386Z,15.25
2017-07-19T04:04:01.360Z,15.22
2017-07-19T04:05:01.373Z,15.31
2017-07-19T04:06:01.051Z,15.4
2017-07-19T04:07:01.342Z,15.33
2017-07-19T04:08:01.345Z,15.3
2017-07-19T04:09:01.024Z,15.4
2017-07-19T04:10:01.332Z,15.38
2017-07-19T04:11:01.336Z,15.41
2017-07-19T04:12:01.331Z,15.45
2017-07-19T04:13:01.310Z,15.51
2017-07-19T04:14:01.319Z,15.56
2017-07-19T04:15:01.004Z,15.56
2017-07-19T04:16:00.656Z,15.53
2017-07-19T04:17:01.323Z,15.58
2017-07-19T04:18:01.294Z,15.62
2017-07-19T04:19:00.639Z,15.68
2017-07-19T04:20:01.010Z,15.7
2017-07-19T04:21:01.286Z,15.74
2017-07-19T04:22:00.642Z,15.74
2017-07-19T04:23:00.954Z,15.77
2017-07-19T04:24:00.971Z,15.84
2017-07-19T04:25:00.938Z,15.92
2017-07-19T04:26:01.265Z,15.89
2017-07-19T04:27:00.932Z,15.93
2017-07-19T04:28:01.242Z,15.95
2017-07-19T04:29:00.614Z,16.06
2017-07-19T04:30:00.923Z,16.11
2017-07-19T04:31:00.914Z,16.14
2017-07-19T04:32:00.925Z,16.25
2017-07-19T04:33:00.925Z,16.22
2017-07-19T04:34:00.920Z,16.26
2017-07-19T04:35:00.897Z,16.3
2017-07-19T04:36:00.893Z,16.3
2017-07-19T04:37:00.901Z,16.33
2017-07-19T04:38:00.887Z,16.4
2017-07-19T04:39:01.201Z,16.48
2017-07-19T04:40:00.876Z,16.54
2017-07-19T04:41:00.894Z,16.58
2017-07-19T04:42:00.867Z,16.58
2017-07-19T04:43:01.188Z,16.66
2017-07-19T04:44:01.192Z,16.67
2017-07-19T04:45:00.538Z,16.69
2017-07-19T04:46:00.872Z,16.8
2017-07-19T04:47:01.177Z,16.74
2017-07-19T04:48:00.868Z,16.87
2017-07-19T04:49:01.164Z,16.94
2017-07-19T04:50:00.519Z,16.95
2017-07-19T04:51:01.156Z,16.9
2017-07-19T04:52:01.159Z,17.05
2017-07-19T04:53:00.829Z,17.05
2017-07-19T04:54:01.147Z,17.09
2017-07-19T04:55:00.836Z,17.06
2017-07-19T04:56:01.149Z,17.13
2017-07-19T04:57:01.140Z,17.1
2017-07-19T04:58:00.821Z,17.2
2017-07-19T04:59:00.825Z,17.24
2017-07-19T05:00:00.804Z,17.27
2017-07-19T05:01:01.132Z,17.27
2017-07-19T05:02:01.122Z,17.38
2017-07-19T05:03:00.483Z,17.32
2017-07-19T05:04:01.115Z,17.32
2017-07-19T05:05:01.122Z,17.45
2017-07-19T05:06:01.121Z,17.45
2017-07-19T05:07:00.806Z,17.49
2017-07-19T05:08:00.796Z,17.47
2017-07-19T05:09:00.789Z,17.55
2017-07-19T05:10:01.097Z,17.47
2017-07-19T05:11:01.096Z,17.55
2017-07-19T05:12:00.799Z,17.58
2017-07-19T05:13:00.468Z,17.54
2017-07-19T05:14:01.112Z,17.74
2017-07-19T05:15:01.113Z,17.69
2017-07-19T05:16:00.775Z,17.79
2017-07-19T05:17:00.754Z,17.74
2017-07-19T05:18:01.110Z,17.84
2017-07-19T05:19:00.434Z,17.86
2017-07-19T05:20:00.762Z,17.87
2017-07-19T05:21:01.068Z,17.9
2017-07-19T05:22:01.088Z,17.96
2017-07-19T05:23:00.778Z,18.02
2017-07-19T05:24:01.071Z,18.05
2017-07-19T05:25:00.415Z,18.01
2017-07-19T05:26:00.731Z,18.02
2017-07-19T05:27:00.734Z,18.02
2017-07-19T05:28:00.411Z,18.1
2017-07-19T05:29:00.732Z,18.1
2017-07-19T05:30:00.738Z,18.19
2017-07-19T05:31:00.781Z,18.17
2017-07-19T05:32:01.037Z,18.19
2017-07-19T05:33:00.719Z,18.21
2017-07-19T05:34:01.061Z,18.32
2017-07-19T05:35:00.737Z,18.26
2017-07-19T05:36:00.733Z,18.19
2017-07-19T05:37:01.033Z,18.27
2017-07-19T05:38:01.047Z,18.31
2017-07-19T05:39:01.023Z,18.34
2017-07-19T05:40:01.038Z,18.24
2017-07-19T05:41:01.022Z,18.31
2017-07-19T05:42:01.026Z,18.36
2017-07-19T05:43:01.029Z,18.41
2017-07-19T05:44:00.700Z,18.42
2017-07-19T05:45:00.713Z,18.47
2017-07-19T05:46:01.012Z,18.53
2017-07-19T05:47:01.008Z,18.51
2017-07-19T05:48:01.015Z,18.54
2017-07-19T05:49:01.025Z,18.69
2017-07-19T05:50:00.689Z,18.61
2017-07-19T05:51:01.020Z,18.78
2017-07-19T05:52:00.677Z,18.79
2017-07-19T05:53:00.996Z,18.81
2017-07-19T05:54:00.669Z,18.89
2017-07-19T05:55:00.996Z,18.87
2017-07-19T05:56:01.001Z,18.99
2017-07-19T05:57:00.665Z,18.94
2017-07-19T05:58:00.989Z,18.99
2017-07-19T05:59:00.666Z,19.07
2017-07-19T06:00:00.982Z,19.19
2017-07-19T06:01:00.980Z,19.19
2017-07-19T06:02:00.987Z,19.25
2017-07-19T06:03:00.993Z,19.25
2017-07-19T06:04:00.980Z,19.31
2017-07-19T06:05:00.979Z,19.31
2017-07-19T06:06:00.973Z,19.43
2017-07-19T06:07:00.672Z,19.4
2017-07-19T06:08:00.650Z,19.43
2017-07-19T06:09:00.967Z,19.45
2017-07-19T06:10:00.649Z,19.52
2017-07-19T06:11:00.672Z,19.45
2017-07-19T06:12:00.325Z,19.5
2017-07-19T06:13:00.994Z,19.57
2017-07-19T06:14:00.963Z,19.57
2017-07-19T06:15:00.963Z,19.61
2017-07-19T06:16:00.954Z,19.64
2017-07-19T06:17:00.655Z,19.71
2017-07-19T06:18:00.959Z,19.78
2017-07-19T06:19:00.973Z,19.79
2017-07-19T06:20:00.968Z,19.8
2017-07-19T06:21:00.953Z,19.89
2017-07-19T06:22:00.954Z,19.87
2017-07-19T06:23:00.972Z,19.95
2017-07-19T06:24:00.954Z,19.95
2017-07-19T06:25:00.949Z,19.98
2017-07-19T06:26:00.953Z,20.11
2017-07-19T06:27:00.953Z,20.08
2017-07-19T06:28:00.640Z,20.02
2017-07-19T06:29:00.958Z,20.15
2017-07-19T06:30:00.944Z,20.18
2017-07-19T06:31:01.005Z,20.22
2017-07-19T06:32:00.943Z,20.27
2017-07-19T06:33:00.952Z,20.4
2017-07-19T06:34:00.625Z,20.35
2017-07-19T06:35:00.637Z,20.38
2017-07-19T06:36:00.628Z,20.42
2017-07-19T06:37:00.957Z,20.49
2017-07-19T06:38:00.619Z,20.61
2017-07-19T06:39:00.952Z,20.61
2017-07-19T06:40:00.985Z,20.71
2017-07-19T06:41:00.616Z,20.83
2017-07-19T06:42:00.665Z,20.83
2017-07-19T06:43:00.943Z,21.16
2017-07-19T06:44:00.984Z,21.27
2017-07-19T06:45:00.947Z,21.64
2017-07-19T06:46:00.937Z,22.05
2017-07-19T06:47:00.944Z,22.51
2017-07-19T06:48:00.936Z,23.1
2017-07-19T06:49:00.940Z,23.41
2017-07-19T06:50:00.632Z,23.67
2017-07-19T06:51:00.619Z,23.92
2017-07-19T06:52:00.933Z,24.24
2017-07-19T06:53:00.935Z,24.74
2017-07-19T06:54:00.942Z,25.3
2017-07-19T06:55:00.940Z,25.88
2017-07-19T06:56:00.942Z,26.59
2017-07-19T06:57:01.147Z,27
2017-07-19T06:58:00.946Z,27.31
2017-07-19T06:59:00.947Z,27.38
2017-07-19T07:00:00.978Z,27.57
2017-07-19T07:01:00.969Z,27.8
2017-07-19T07:02:00.633Z,28.01
2017-07-19T07:03:00.336Z,28.6
2017-07-19T07:04:00.974Z,29.11
2017-07-19T07:05:00.653Z,29.6
2017-07-19T07:06:00.985Z,30.03
2017-07-19T07:07:00.978Z,30.28
2017-07-19T07:08:00.655Z,30.63
2017-07-19T07:09:00.985Z,31.01
2017-07-19T07:10:00.689Z,31.26
2017-07-19T07:11:00.997Z,31.52
2017-07-19T07:12:00.996Z,31.88
2017-07-19T07:13:00.360Z,31.95
2017-07-19T07:14:00.382Z,32.16
2017-07-19T07:15:01.032Z,32.37
2017-07-19T07:16:00.698Z,32.54
2017-07-19T07:17:00.702Z,32.79
2017-07-19T07:18:00.709Z,32.81
2017-07-19T07:19:01.094Z,32.99
2017-07-19T07:20:00.731Z,33.01
2017-07-19T07:21:01.076Z,33.12
2017-07-19T07:22:01.055Z,33.28
2017-07-19T07:23:01.092Z,33.59
2017-07-19T07:24:01.078Z,33.78
2017-07-19T07:25:01.084Z,33.97
2017-07-19T07:26:01.092Z,34.11
2017-07-19T07:27:01.115Z,34.21
2017-07-19T07:28:00.471Z,34.41
2017-07-19T07:29:00.812Z,34.55
2017-07-19T07:30:01.151Z,34.58
2017-07-19T07:31:00.818Z,34.79
2017-07-19T07:32:01.145Z,34.99
2017-07-19T07:33:00.853Z,35.09
2017-07-19T07:34:01.166Z,34.9
2017-07-19T07:35:01.175Z,34.84
2017-07-19T07:36:00.535Z,34.77
2017-07-19T07:37:00.896Z,34.71
2017-07-19T07:38:01.203Z,34.58
2017-07-19T07:39:00.893Z,34.55
2017-07-19T07:40:01.210Z,34.52
2017-07-19T07:41:01.223Z,34.26
2017-07-19T07:42:00.906Z,34.05
2017-07-19T07:43:01.265Z,34.15
2017-07-19T07:44:01.265Z,34.22
2017-07-19T07:45:01.287Z,34.46
2017-07-19T07:46:01.281Z,34.72
2017-07-19T07:47:00.977Z,34.71
2017-07-19T07:48:00.976Z,34.84
2017-07-19T07:49:01.308Z,34.9
2017-07-19T07:50:01.313Z,34.89
2017-07-19T07:51:01.013Z,34.89
2017-07-19T07:52:01.010Z,34.84
2017-07-19T07:53:01.029Z,34.9
2017-07-19T07:54:01.349Z,34.96
2017-07-19T07:55:01.403Z,35.21
2017-07-19T07:56:01.050Z,35.28
2017-07-19T07:57:01.063Z,35.38
2017-07-19T07:58:01.071Z,35.13
2017-07-19T07:59:01.081Z,35.11
2017-07-19T08:00:01.091Z,34.91
2017-07-19T08:01:01.095Z,34.87
2017-07-19T08:02:01.460Z,34.63
2017-07-19T08:03:01.115Z,34.58
2017-07-19T08:04:00.808Z,34.71
2017-07-19T08:05:01.476Z,34.91
2017-07-19T08:06:01.145Z,35.06
2017-07-19T08:07:01.188Z,35.3
2017-07-19T08:08:01.175Z,35.21
2017-07-19T08:09:01.177Z,34.96
2017-07-19T08:10:01.511Z,34.83
2017-07-19T08:11:01.210Z,34.66
2017-07-19T08:12:01.202Z,34.48
2017-07-19T08:13:01.530Z,34.17
2017-07-19T08:14:01.540Z,33.89
2017-07-19T08:15:00.907Z,33.58
2017-07-19T08:16:01.572Z,33.36
2017-07-19T08:17:01.245Z,33.21
2017-07-19T08:18:01.249Z,32.83
2017-07-19T08:19:01.991Z,32.32
2017-07-19T08:20:00.962Z,31.97
2017-07-19T08:21:01.596Z,31.52
2017-07-19T08:22:00.966Z,31.18
2017-07-19T08:23:01.642Z,30.86
2017-07-19T08:24:01.614Z,30.51
2017-07-19T08:25:00.978Z,30.21
2017-07-19T08:26:01.321Z,30.02
2017-07-19T08:27:01.686Z,29.67
2017-07-19T08:28:01.656Z,29.32
2017-07-19T08:29:01.650Z,29.05
2017-07-19T08:30:01.660Z,28.8
2017-07-19T08:31:01.672Z,28.58
2017-07-19T08:32:01.698Z,28.48
2017-07-19T08:33:01.375Z,28.31
2017-07-19T08:34:01.698Z,28.27
2017-07-19T08:35:01.364Z,28.18
2017-07-19T08:36:01.690Z,28.2
2017-07-19T08:37:01.062Z,28.03
2017-07-19T08:38:01.705Z,28.01
2017-07-19T08:39:01.417Z,27.89
2017-07-19T08:40:01.730Z,27.81
2017-07-19T08:41:01.086Z,27.84
2017-07-19T08:42:01.726Z,27.83
2017-07-19T08:43:01.735Z,27.91
2017-07-19T08:44:01.444Z,27.99
2017-07-19T08:45:01.106Z,28.01
2017-07-19T08:46:01.449Z,28.18
2017-07-19T08:47:01.435Z,28.21
2017-07-19T08:48:01.771Z,28.3
2017-07-19T08:49:01.465Z,28.28
2017-07-19T08:50:01.449Z,28.18
2017-07-19T08:51:01.790Z,28.16
2017-07-19T08:52:01.148Z,28.05
2017-07-19T08:53:01.787Z,27.91
2017-07-19T08:54:01.795Z,27.79
2017-07-19T08:55:02.010Z,27.71
2017-07-19T08:56:01.486Z,27.68
2017-07-19T08:57:01.517Z,27.55
2017-07-19T08:58:01.551Z,27.51
2017-07-19T08:59:01.828Z,27.51
2017-07-19T09:00:01.841Z,27.42
2017-07-19T09:01:01.510Z,27.57
2017-07-19T09:02:01.516Z,27.55
2017-07-19T09:03:01.846Z,27.69
2017-07-19T09:04:01.843Z,27.71
2017-07-19T09:05:01.531Z,27.94
2017-07-19T09:06:01.876Z,28.14
2017-07-19T09:07:01.856Z,28.18
2017-07-19T09:08:01.889Z,28.3
2017-07-19T09:09:01.242Z,28.28
2017-07-19T09:10:01.231Z,28.35
2017-07-19T09:11:01.242Z,28.41
2017-07-19T09:12:01.569Z,28.43
2017-07-19T09:13:01.567Z,28.53
2017-07-19T09:14:01.908Z,28.67
2017-07-19T09:15:01.579Z,28.76
2017-07-19T09:16:01.598Z,28.78
2017-07-19T09:17:01.286Z,28.95
2017-07-19T09:18:01.276Z,28.94
2017-07-19T09:19:01.936Z,28.97
2017-07-19T09:20:01.608Z,29.02
2017-07-19T09:21:01.605Z,29.23
2017-07-19T09:22:01.645Z,29.3
2017-07-19T09:23:01.646Z,29.28
2017-07-19T09:24:01.631Z,29.21
2017-07-19T09:25:01.654Z,29.29
2017-07-19T09:26:01.964Z,29.23
2017-07-19T09:27:01.643Z,29.26
2017-07-19T09:28:01.978Z,29.38
2017-07-19T09:29:01.978Z,29.45
2017-07-19T09:30:02.021Z,29.39
2017-07-19T09:31:01.669Z,29.43
2017-07-19T09:32:01.686Z,29.57
2017-07-19T09:33:01.352Z,29.63
2017-07-19T09:34:01.679Z,29.63
2017-07-19T09:35:01.711Z,29.82
2017-07-19T09:36:01.370Z,29.87
2017-07-19T09:37:02.039Z,29.98
2017-07-19T09:38:01.718Z,30.09
2017-07-19T09:39:02.056Z,30.16
2017-07-19T09:40:01.728Z,30.06
2017-07-19T09:41:01.724Z,30.06
2017-07-19T09:42:01.729Z,30.18
2017-07-19T09:43:02.048Z,29.98
2017-07-19T09:44:02.062Z,29.92
2017-07-19T09:45:01.747Z,29.89
2017-07-19T09:46:01.745Z,29.98
2017-07-19T09:47:02.055Z,30.22
2017-07-19T09:48:02.083Z,30.25
2017-07-19T09:49:01.778Z,30.35
2017-07-19T09:50:01.802Z,30.35
2017-07-19T09:51:01.796Z,30.45
2017-07-19T09:52:02.123Z,30.42
2017-07-19T09:53:01.822Z,30.54
2017-07-19T09:54:02.119Z,30.63
2017-07-19T09:55:01.804Z,30.75
2017-07-19T09:56:01.831Z,30.73
2017-07-19T09:57:01.496Z,30.71
2017-07-19T09:58:01.842Z,30.77
2017-07-19T09:59:01.840Z,30.67
2017-07-19T10:00:01.852Z,30.82
2017-07-19T10:01:02.179Z,30.81
2017-07-19T10:02:01.860Z,30.71
2017-07-19T10:03:01.879Z,30.78
2017-07-19T10:04:01.882Z,30.67
2017-07-19T10:05:01.875Z,30.59
2017-07-19T10:06:02.218Z,30.51
2017-07-19T10:07:02.249Z,30.25
2017-07-19T10:08:01.906Z,30.07
2017-07-19T10:09:02.242Z,30.07
2017-07-19T10:10:01.931Z,30.18
2017-07-19T10:11:01.909Z,30.22
2017-07-19T10:12:02.273Z,30.26
2017-07-19T10:13:02.246Z,30.16
2017-07-19T10:14:02.251Z,30.19
2017-07-19T10:15:01.958Z,30.16
2017-07-19T10:16:02.262Z,30.11
2017-07-19T10:17:01.967Z,30.18
2017-07-19T10:18:02.290Z,30.21
2017-07-19T10:19:01.648Z,30.21
2017-07-19T10:20:01.979Z,30.18
2017-07-19T10:21:01.989Z,29.95
2017-07-19T10:22:01.662Z,29.67
2017-07-19T10:23:02.333Z,29.29
2017-07-19T10:24:01.991Z,29.08
2017-07-19T10:25:02.322Z,28.78
2017-07-19T10:26:02.025Z,28.68
2017-07-19T10:27:02.015Z,28.45
2017-07-19T10:28:02.035Z,28.3
2017-07-19T10:29:02.028Z,28.21
2017-07-19T10:30:01.730Z,28.09
2017-07-19T10:31:02.044Z,28.09
2017-07-19T10:32:01.740Z,28.01
2017-07-19T10:33:02.407Z,28.2
2017-07-19T10:34:02.375Z,28.2
2017-07-19T10:35:02.060Z,28.36
2017-07-19T10:36:01.744Z,28.6
2017-07-19T10:37:01.772Z,28.86
2017-07-19T10:38:02.397Z,29.08
2017-07-19T10:39:02.399Z,29.08
2017-07-19T10:40:02.431Z,29.33
2017-07-19T10:41:02.121Z,29.32
2017-07-19T10:42:02.425Z,29.33
2017-07-19T10:43:01.783Z,29.28
2017-07-19T10:44:02.433Z,29.05
2017-07-19T10:45:02.457Z,28.88
2017-07-19T10:46:02.443Z,28.72
2017-07-19T10:47:01.806Z,28.67
2017-07-19T10:48:02.458Z,28.68
2017-07-19T10:49:02.459Z,28.72
2017-07-19T10:50:02.147Z,28.85
2017-07-19T10:51:02.482Z,28.97
2017-07-19T10:52:02.474Z,29.05
2017-07-19T10:53:02.507Z,29.1
2017-07-19T10:54:02.173Z,29.23
2017-07-19T10:55:02.187Z,29.21
2017-07-19T10:56:02.501Z,29.32
2017-07-19T10:57:02.506Z,29.5
2017-07-19T10:58:02.514Z,29.58
2017-07-19T10:59:02.534Z,29.6
2017-07-19T11:00:02.211Z,29.61
2017-07-19T11:01:02.205Z,29.84
2017-07-19T11:02:02.207Z,29.85
2017-07-19T11:03:02.555Z,29.94
2017-07-19T11:04:02.557Z,30
2017-07-19T11:05:02.250Z,30.06
2017-07-19T11:06:02.574Z,30.16
2017-07-19T11:07:02.561Z,30.19
2017-07-19T11:08:02.247Z,30.18
2017-07-19T11:09:02.612Z,30.16
2017-07-19T11:10:02.583Z,30.21
2017-07-19T11:11:02.265Z,30.18
2017-07-19T11:12:01.952Z,30.19
2017-07-19T11:13:02.612Z,30.02
2017-07-19T11:14:02.635Z,30.02
2017-07-19T11:15:02.288Z,29.98
2017-07-19T11:16:02.628Z,29.88
2017-07-19T11:17:02.497Z,29.69
2017-07-19T11:18:02.311Z,29.45
2017-07-19T11:19:02.652Z,29.3
2017-07-19T11:20:02.638Z,29.06
2017-07-19T11:21:02.644Z,29.13
2017-07-19T11:22:02.650Z,29.06
2017-07-19T11:23:02.334Z,28.92
2017-07-19T11:24:02.657Z,28.88
2017-07-19T11:25:02.378Z,28.72
2017-07-19T11:26:02.352Z,28.76
2017-07-19T11:27:02.701Z,28.91
2017-07-19T11:28:02.053Z,29.06
2017-07-19T11:29:02.048Z,29.32
2017-07-19T11:30:02.718Z,29.61
2017-07-19T11:31:02.714Z,29.69
2017-07-19T11:32:02.388Z,29.92
2017-07-19T11:33:02.744Z,30.21
2017-07-19T11:34:02.765Z,30.37
2017-07-19T11:35:02.737Z,30.47
2017-07-19T11:36:02.755Z,30.56
2017-07-19T11:37:02.431Z,30.7
2017-07-19T11:38:02.756Z,30.63
2017-07-19T11:39:02.774Z,30.44
2017-07-19T11:40:02.485Z,30.25
2017-07-19T11:41:02.770Z,30.14
2017-07-19T11:42:02.778Z,30.06
2017-07-19T11:43:02.801Z,30.06
2017-07-19T11:44:02.782Z,30.14
2017-07-19T11:45:02.145Z,30.1
2017-07-19T11:46:02.805Z,29.91
2017-07-19T11:47:02.187Z,29.69
2017-07-19T11:48:02.493Z,29.6
2017-07-19T11:49:02.494Z,29.61
2017-07-19T11:50:02.829Z,29.63
2017-07-19T11:51:02.506Z,29.72
2017-07-19T11:52:02.512Z,29.81
2017-07-19T11:53:02.540Z,29.95
2017-07-19T11:54:02.843Z,30.16
2017-07-19T11:55:02.895Z,30.22
2017-07-19T11:56:02.558Z,30.22
2017-07-19T11:57:02.545Z,30.11
2017-07-19T11:58:02.897Z,30.25
2017-07-19T11:59:02.245Z,30.18
2017-07-19T12:00:02.886Z,30.29
2017-07-19T12:01:02.623Z,30.16
2017-07-19T12:02:02.921Z,30.16
2017-07-19T12:03:02.949Z,30.18
2017-07-19T12:04:02.605Z,30.18
2017-07-19T12:05:02.603Z,30.22
2017-07-19T12:06:02.943Z,30.21
2017-07-19T12:07:02.964Z,30.21
2017-07-19T12:08:02.630Z,30.19
2017-07-19T12:09:02.638Z,30.14
2017-07-19T12:10:02.952Z,30
2017-07-19T12:11:02.641Z,29.79
2017-07-19T12:12:02.963Z,29.66
2017-07-19T12:13:02.971Z,29.43
2017-07-19T12:14:02.981Z,29.18
2017-07-19T12:15:02.345Z,29.11
2017-07-19T12:16:03.013Z,28.92
2017-07-19T12:17:02.670Z,28.97
2017-07-19T12:18:02.719Z,28.8
2017-07-19T12:19:02.709Z,28.7
2017-07-19T12:20:03.044Z,28.67
2017-07-19T12:21:02.701Z,28.78
2017-07-19T12:22:02.711Z,28.9
2017-07-19T12:23:03.026Z,28.98
2017-07-19T12:24:03.067Z,29.03
2017-07-19T12:25:02.729Z,29.29
2017-07-19T12:26:03.091Z,29.33
2017-07-19T12:27:02.738Z,29.4
2017-07-19T12:28:02.761Z,29.42
2017-07-19T12:29:03.096Z,29.43
2017-07-19T12:30:02.749Z,29.61
2017-07-19T12:31:02.770Z,29.65
2017-07-19T12:32:02.787Z,29.72
2017-07-19T12:33:02.772Z,29.72
2017-07-19T12:34:03.106Z,29.82
2017-07-19T12:35:03.106Z,29.87
2017-07-19T12:36:03.107Z,29.91
2017-07-19T12:37:02.797Z,29.92
2017-07-19T12:38:03.122Z,29.82
2017-07-19T12:39:02.834Z,29.84
2017-07-19T12:40:03.138Z,29.81
2017-07-19T12:41:02.817Z,29.69
2017-07-19T12:42:03.175Z,29.77
2017-07-19T12:43:03.149Z,29.69
2017-07-19T12:44:03.173Z,29.6
2017-07-19T12:45:02.942Z,29.63
2017-07-19T12:46:03.170Z,29.6
2017-07-19T12:47:02.855Z,29.61
2017-07-19T12:48:03.188Z,29.57
2017-07-19T12:49:03.210Z,29.63
2017-07-19T12:50:02.873Z,29.6
2017-07-19T12:51:03.203Z,29.6
2017-07-19T12:52:03.206Z,29.69
2017-07-19T12:53:03.231Z,29.81
2017-07-19T12:54:03.216Z,29.92